Terminal Aerodrome Forecast
Issued by NWS

Home | Current Version | Previous Version | Graphics & Text | Print | Product List | Glossary On
Versions: 1 2 3 4 5 6 7 8 9 10 11 12 13 14 15 16 17 18 19 20 21 22 23 24
000
FTUS43 KBIS 250500
TAFJMS
TAF
KJMS 250531Z 2506/2606 25007KT P6SM SCT025 OVC080
      TEMPO 2506/2509 SCT080
     FM250900 32008KT P6SM SCT012 BKN025
      TEMPO 2509/2511 5SM BR BKN012 OVC025
     FM251100 33009KT 4SM -SHSN BR BKN008 OVC015
     FM251700 34015KT 5SM -SHSN BR OVC015=

USA.gov is the U.S. government's official web portal to all federal, state and local government web resources and services.